sensor_id;sensor_type;location;lat;lon;timestamp;P1;durP1;ratioP1;P2;durP2;ratioP2
26540;SDS011;14206;50.202;10.948;2023-02-05T00:01:34;5.88;;;4.05;;
26540;SDS011;14206;50.202;10.948;2023-02-05T00:04:11;7.60;;;4.93;;
26540;SDS011;14206;50.202;10.948;2023-02-05T00:09:55;5.78;;;4.05;;
26540;SDS011;14206;50.202;10.948;2023-02-05T00:12:22;6.22;;;4.63;;
26540;SDS011;14206;50.202;10.948;2023-02-05T00:14:49;7.07;;;4.65;;
26540;SDS011;14206;50.202;10.948;2023-02-05T00:17:16;6.70;;;4.72;;
26540;SDS011;14206;50.202;10.948;2023-02-05T00:19:43;6.38;;;4.18;;
26540;SDS011;14206;50.202;10.948;2023-02-05T00:22:10;5.97;;;3.95;;
26540;SDS011;14206;50.202;10.948;2023-02-05T00:24:37;6.32;;;4.20;;
26540;SDS011;14206;50.202;10.948;2023-02-05T00:27:04;6.65;;;4.43;;
26540;SDS011;14206;50.202;10.948;2023-02-05T00:29:32;7.22;;;4.53;;
26540;SDS011;14206;50.202;10.948;2023-02-05T00:31:59;6.38;;;4.07;;
26540;SDS011;14206;50.202;10.948;2023-02-05T00:34:26;6.63;;;4.50;;
26540;SDS011;14206;50.202;10.948;2023-02-05T00:36:53;5.55;;;3.80;;
26540;SDS011;14206;50.202;10.948;2023-02-05T00:39:21;5.80;;;3.95;;
26540;SDS011;14206;50.202;10.948;2023-02-05T00:41:47;6.00;;;4.15;;
26540;SDS011;14206;50.202;10.948;2023-02-05T00:44:17;5.90;;;4.13;;
26540;SDS011;14206;50.202;10.948;2023-02-05T00:46:44;6.18;;;4.22;;
26540;SDS011;14206;50.202;10.948;2023-02-05T00:49:10;7.72;;;4.50;;
26540;SDS011;14206;50.202;10.948;2023-02-05T00:51:37;6.10;;;4.30;;
26540;SDS011;14206;50.202;10.948;2023-02-05T00:54:04;5.50;;;3.95;;
26540;SDS011;14206;50.202;10.948;2023-02-05T00:56:31;5.47;;;3.85;;
26540;SDS011;14206;50.202;10.948;2023-02-05T00:58:58;6.25;;;4.13;;
26540;SDS011;14206;50.202;10.948;2023-02-05T01:01:25;5.82;;;3.88;;
26540;SDS011;14206;50.202;10.948;2023-02-05T01:03:52;5.20;;;3.97;;
26540;SDS011;14206;50.202;10.948;2023-02-05T01:06:19;5.80;;;4.07;;
26540;SDS011;14206;50.202;10.948;2023-02-05T01:08:46;6.15;;;3.97;;
26540;SDS011;14206;50.202;10.948;2023-02-05T01:11:13;5.78;;;4.28;;
26540;SDS011;14206;50.202;10.948;2023-02-05T01:13:40;5.50;;;4.32;;
26540;SDS011;14206;50.202;10.948;2023-02-05T01:16:07;5.38;;;3.95;;
26540;SDS011;14206;50.202;10.948;2023-02-05T01:18:35;6.55;;;4.45;;
26540;SDS011;14206;50.202;10.948;2023-02-05T01:21:02;6.53;;;4.40;;
26540;SDS011;14206;50.202;10.948;2023-02-05T01:23:29;5.60;;;4.30;;
26540;SDS011;14206;50.202;10.948;2023-02-05T01:25:56;5.72;;;3.85;;
26540;SDS011;14206;50.202;10.948;2023-02-05T01:28:23;6.38;;;4.13;;
26540;SDS011;14206;50.202;10.948;2023-02-05T01:30:50;4.95;;;3.67;;
26540;SDS011;14206;50.202;10.948;2023-02-05T01:33:17;5.50;;;3.92;;
26540;SDS011;14206;50.202;10.948;2023-02-05T01:35:44;4.55;;;3.50;;
26540;SDS011;14206;50.202;10.948;2023-02-05T01:38:11;5.90;;;4.03;;
26540;SDS011;14206;50.202;10.948;2023-02-05T01:40:39;6.15;;;4.22;;
26540;SDS011;14206;50.202;10.948;2023-02-05T01:43:11;5.03;;;3.95;;
26540;SDS011;14206;50.202;10.948;2023-02-05T01:48:27;5.20;;;3.80;;
26540;SDS011;14206;50.202;10.948;2023-02-05T01:50:58;4.88;;;3.80;;
26540;SDS011;14206;50.202;10.948;2023-02-05T01:53:30;5.22;;;3.72;;
26540;SDS011;14206;50.202;10.948;2023-02-05T01:56:00;5.60;;;4.25;;
26540;SDS011;14206;50.202;10.948;2023-02-05T01:58:41;5.43;;;3.97;;
26540;SDS011;14206;50.202;10.948;2023-02-05T02:01:12;5.18;;;3.90;;
26540;SDS011;14206;50.202;10.948;2023-02-05T02:03:39;5.78;;;3.70;;
26540;SDS011;14206;50.202;10.948;2023-02-05T02:06:08;5.18;;;3.80;;
26540;SDS011;14206;50.202;10.948;2023-02-05T02:08:35;6.57;;;4.53;;
26540;SDS011;14206;50.202;10.948;2023-02-05T02:11:02;5.63;;;3.67;;
26540;SDS011;14206;50.202;10.948;2023-02-05T02:13:31;5.53;;;3.80;;
26540;SDS011;14206;50.202;10.948;2023-02-05T02:16:03;5.63;;;4.15;;
26540;SDS011;14206;50.202;10.948;2023-02-05T02:18:32;5.38;;;3.60;;
26540;SDS011;14206;50.202;10.948;2023-02-05T02:29:18;4.63;;;3.42;;
26540;SDS011;14206;50.202;10.948;2023-02-05T02:31:56;4.87;;;3.33;;
26540;SDS011;14206;50.202;10.948;2023-02-05T02:34:32;4.68;;;3.20;;
26540;SDS011;14206;50.202;10.948;2023-02-05T02:37:07;5.15;;;3.70;;
26540;SDS011;14206;50.202;10.948;2023-02-05T02:39:54;4.47;;;3.35;;
26540;SDS011;14206;50.202;10.948;2023-02-05T02:42:44;4.38;;;3.15;;
26540;SDS011;14206;50.202;10.948;2023-02-05T02:45:17;5.03;;;3.33;;
26540;SDS011;14206;50.202;10.948;2023-02-05T02:47:52;4.85;;;3.38;;
26540;SDS011;14206;50.202;10.948;2023-02-05T02:53:02;4.30;;;3.15;;
26540;SDS011;14206;50.202;10.948;2023-02-05T02:55:34;4.40;;;2.85;;
26540;SDS011;14206;50.202;10.948;2023-02-05T02:58:06;4.80;;;3.60;;
26540;SDS011;14206;50.202;10.948;2023-02-05T03:03:06;4.40;;;3.17;;
26540;SDS011;14206;50.202;10.948;2023-02-05T03:05:37;4.97;;;3.10;;
26540;SDS011;14206;50.202;10.948;2023-02-05T03:08:09;4.47;;;3.25;;
26540;SDS011;14206;50.202;10.948;2023-02-05T03:10:54;4.85;;;3.17;;
26540;SDS011;14206;50.202;10.948;2023-02-05T03:13:28;4.07;;;2.97;;
26540;SDS011;14206;50.202;10.948;2023-02-05T03:15:58;4.38;;;3.33;;
26540;SDS011;14206;50.202;10.948;2023-02-05T03:18:26;5.22;;;3.65;;
26540;SDS011;14206;50.202;10.948;2023-02-05T03:20:55;6.22;;;4.68;;
26540;SDS011;14206;50.202;10.948;2023-02-05T03:23:25;8.82;;;6.15;;
26540;SDS011;14206;50.202;10.948;2023-02-05T03:25:54;6.85;;;5.10;;
26540;SDS011;14206;50.202;10.948;2023-02-05T03:28:28;6.38;;;4.65;;
26540;SDS011;14206;50.202;10.948;2023-02-05T03:31:00;7.28;;;4.60;;
26540;SDS011;14206;50.202;10.948;2023-02-05T03:39:26;6.00;;;3.95;;
26540;SDS011;14206;50.202;10.948;2023-02-05T03:53:16;4.38;;;3.13;;
26540;SDS011;14206;50.202;10.948;2023-02-05T03:58:23;4.53;;;2.83;;
26540;SDS011;14206;50.202;10.948;2023-02-05T04:01:13;3.95;;;2.95;;
26540;SDS011;14206;50.202;10.948;2023-02-05T04:03:42;4.65;;;3.22;;
26540;SDS011;14206;50.202;10.948;2023-02-05T04:06:10;4.72;;;3.10;;
26540;SDS011;14206;50.202;10.948;2023-02-05T04:08:37;5.03;;;3.22;;
26540;SDS011;14206;50.202;10.948;2023-02-05T04:11:04;4.00;;;3.10;;
26540;SDS011;14206;50.202;10.948;2023-02-05T04:13:31;4.90;;;3.45;;
26540;SDS011;14206;50.202;10.948;2023-02-05T04:16:00;5.10;;;3.30;;
26540;SDS011;14206;50.202;10.948;2023-02-05T04:18:26;4.63;;;3.53;;
26540;SDS011;14206;50.202;10.948;2023-02-05T04:20:54;4.60;;;3.58;;
26540;SDS011;14206;50.202;10.948;2023-02-05T04:23:24;5.25;;;3.53;;
26540;SDS011;14206;50.202;10.948;2023-02-05T04:25:52;5.32;;;3.58;;
26540;SDS011;14206;50.202;10.948;2023-02-05T04:28:23;4.45;;;3.30;;
26540;SDS011;14206;50.202;10.948;2023-02-05T04:30:50;4.97;;;3.45;;
26540;SDS011;14206;50.202;10.948;2023-02-05T04:33:18;5.43;;;3.40;;
26540;SDS011;14206;50.202;10.948;2023-02-05T04:35:45;4.22;;;3.13;;
26540;SDS011;14206;50.202;10.948;2023-02-05T04:38:11;4.82;;;3.50;;
26540;SDS011;14206;50.202;10.948;2023-02-05T04:40:38;4.70;;;3.17;;
26540;SDS011;14206;50.202;10.948;2023-02-05T04:43:05;5.50;;;3.90;;
26540;SDS011;14206;50.202;10.948;2023-02-05T04:45:32;5.45;;;3.90;;
26540;SDS011;14206;50.202;10.948;2023-02-05T04:48:01;5.05;;;3.72;;
26540;SDS011;14206;50.202;10.948;2023-02-05T04:50:28;6.13;;;4.07;;
26540;SDS011;14206;50.202;10.948;2023-02-05T04:52:54;5.80;;;3.92;;
26540;SDS011;14206;50.202;10.948;2023-02-05T04:55:21;4.70;;;3.78;;
26540;SDS011;14206;50.202;10.948;2023-02-05T04:57:48;4.88;;;3.63;;
26540;SDS011;14206;50.202;10.948;2023-02-05T05:00:18;4.47;;;3.83;;
26540;SDS011;14206;50.202;10.948;2023-02-05T05:02:45;4.82;;;3.60;;
26540;SDS011;14206;50.202;10.948;2023-02-05T05:05:12;6.40;;;4.47;;
26540;SDS011;14206;50.202;10.948;2023-02-05T05:07:39;6.22;;;4.15;;
26540;SDS011;14206;50.202;10.948;2023-02-05T05:10:09;6.45;;;4.05;;
26540;SDS011;14206;50.202;10.948;2023-02-05T05:12:37;4.60;;;3.28;;
26540;SDS011;14206;50.202;10.948;2023-02-05T05:15:04;3.90;;;3.08;;
26540;SDS011;14206;50.202;10.948;2023-02-05T05:17:33;4.72;;;3.40;;
26540;SDS011;14206;50.202;10.948;2023-02-05T05:20:00;4.07;;;3.45;;
26540;SDS011;14206;50.202;10.948;2023-02-05T05:22:27;3.97;;;3.10;;
26540;SDS011;14206;50.202;10.948;2023-02-05T05:24:54;4.65;;;3.42;;
26540;SDS011;14206;50.202;10.948;2023-02-05T05:27:21;7.20;;;3.42;;
26540;SDS011;14206;50.202;10.948;2023-02-05T05:29:49;5.03;;;3.45;;
26540;SDS011;14206;50.202;10.948;2023-02-05T05:32:16;4.30;;;3.42;;
26540;SDS011;14206;50.202;10.948;2023-02-05T05:34:43;5.53;;;3.90;;
26540;SDS011;14206;50.202;10.948;2023-02-05T05:37:09;4.65;;;3.65;;
26540;SDS011;14206;50.202;10.948;2023-02-05T05:39:36;4.18;;;3.00;;
26540;SDS011;14206;50.202;10.948;2023-02-05T05:42:21;4.85;;;3.75;;
26540;SDS011;14206;50.202;10.948;2023-02-05T05:45:07;4.22;;;3.25;;
26540;SDS011;14206;50.202;10.948;2023-02-05T05:47:35;5.20;;;3.67;;
26540;SDS011;14206;50.202;10.948;2023-02-05T05:50:02;5.10;;;3.70;;
26540;SDS011;14206;50.202;10.948;2023-02-05T05:52:29;5.38;;;3.70;;
26540;SDS011;14206;50.202;10.948;2023-02-05T05:54:58;4.78;;;3.40;;
26540;SDS011;14206;50.202;10.948;2023-02-05T05:57:24;4.50;;;3.50;;
26540;SDS011;14206;50.202;10.948;2023-02-05T05:59:51;4.13;;;3.17;;
26540;SDS011;14206;50.202;10.948;2023-02-05T06:02:18;5.35;;;3.72;;
26540;SDS011;14206;50.202;10.948;2023-02-05T06:04:45;5.93;;;4.00;;
26540;SDS011;14206;50.202;10.948;2023-02-05T06:07:12;4.90;;;3.58;;
26540;SDS011;14206;50.202;10.948;2023-02-05T06:09:39;5.03;;;3.47;;
26540;SDS011;14206;50.202;10.948;2023-02-05T06:12:06;4.45;;;3.58;;
26540;SDS011;14206;50.202;10.948;2023-02-05T06:14:34;5.10;;;3.65;;
26540;SDS011;14206;50.202;10.948;2023-02-05T06:17:01;4.78;;;3.70;;
26540;SDS011;14206;50.202;10.948;2023-02-05T06:19:28;3.80;;;3.17;;
26540;SDS011;14206;50.202;10.948;2023-02-05T06:21:55;4.65;;;3.58;;
26540;SDS011;14206;50.202;10.948;2023-02-05T06:24:22;6.35;;;4.28;;
26540;SDS011;14206;50.202;10.948;2023-02-05T06:26:49;5.47;;;3.90;;
26540;SDS011;14206;50.202;10.948;2023-02-05T06:29:15;5.90;;;4.07;;
26540;SDS011;14206;50.202;10.948;2023-02-05T06:31:42;4.70;;;3.33;;
26540;SDS011;14206;50.202;10.948;2023-02-05T06:34:09;4.90;;;3.80;;
26540;SDS011;14206;50.202;10.948;2023-02-05T06:36:37;4.65;;;3.35;;
26540;SDS011;14206;50.202;10.948;2023-02-05T06:39:04;5.45;;;3.72;;
26540;SDS011;14206;50.202;10.948;2023-02-05T06:41:31;5.95;;;4.10;;
26540;SDS011;14206;50.202;10.948;2023-02-05T06:43:57;4.80;;;3.95;;
26540;SDS011;14206;50.202;10.948;2023-02-05T06:46:24;5.47;;;4.00;;
26540;SDS011;14206;50.202;10.948;2023-02-05T06:48:51;5.45;;;3.85;;
26540;SDS011;14206;50.202;10.948;2023-02-05T06:51:18;6.32;;;4.63;;
26540;SDS011;14206;50.202;10.948;2023-02-05T06:53:45;6.32;;;4.40;;
26540;SDS011;14206;50.202;10.948;2023-02-05T06:56:11;6.05;;;4.57;;
26540;SDS011;14206;50.202;10.948;2023-02-05T06:58:38;6.10;;;4.50;;
26540;SDS011;14206;50.202;10.948;2023-02-05T07:01:05;7.00;;;4.80;;
26540;SDS011;14206;50.202;10.948;2023-02-05T07:03:32;6.72;;;4.45;;
26540;SDS011;14206;50.202;10.948;2023-02-05T07:06:03;6.68;;;4.60;;
26540;SDS011;14206;50.202;10.948;2023-02-05T07:08:31;5.50;;;4.15;;
26540;SDS011;14206;50.202;10.948;2023-02-05T07:10:58;6.10;;;4.07;;
26540;SDS011;14206;50.202;10.948;2023-02-05T07:13:28;6.00;;;3.75;;
26540;SDS011;14206;50.202;10.948;2023-02-05T07:15:55;4.78;;;3.58;;
26540;SDS011;14206;50.202;10.948;2023-02-05T07:18:22;4.25;;;3.40;;
26540;SDS011;14206;50.202;10.948;2023-02-05T07:20:49;4.13;;;3.38;;
26540;SDS011;14206;50.202;10.948;2023-02-05T07:23:16;4.18;;;3.25;;
26540;SDS011;14206;50.202;10.948;2023-02-05T07:25:43;5.57;;;3.80;;
26540;SDS011;14206;50.202;10.948;2023-02-05T07:28:10;4.80;;;3.75;;
26540;SDS011;14206;50.202;10.948;2023-02-05T07:30:37;4.28;;;3.60;;
26540;SDS011;14206;50.202;10.948;2023-02-05T07:33:04;5.20;;;3.85;;
26540;SDS011;14206;50.202;10.948;2023-02-05T07:35:30;5.60;;;4.35;;
26540;SDS011;14206;50.202;10.948;2023-02-05T07:38:11;10.15;;;6.30;;
26540;SDS011;14206;50.202;10.948;2023-02-05T07:40:39;5.22;;;4.40;;
26540;SDS011;14206;50.202;10.948;2023-02-05T07:43:06;5.88;;;4.45;;
26540;SDS011;14206;50.202;10.948;2023-02-05T07:45:32;5.65;;;4.07;;
26540;SDS011;14206;50.202;10.948;2023-02-05T07:48:00;7.32;;;5.15;;
26540;SDS011;14206;50.202;10.948;2023-02-05T07:50:27;6.13;;;4.72;;
26540;SDS011;14206;50.202;10.948;2023-02-05T07:52:56;5.35;;;4.20;;
26540;SDS011;14206;50.202;10.948;2023-02-05T07:55:23;5.65;;;4.40;;
26540;SDS011;14206;50.202;10.948;2023-02-05T07:57:50;5.85;;;4.07;;
26540;SDS011;14206;50.202;10.948;2023-02-05T08:00:17;6.07;;;4.20;;
26540;SDS011;14206;50.202;10.948;2023-02-05T08:02:44;6.38;;;4.50;;
26540;SDS011;14206;50.202;10.948;2023-02-05T08:05:10;4.90;;;3.92;;
26540;SDS011;14206;50.202;10.948;2023-02-05T08:07:37;5.53;;;4.40;;
26540;SDS011;14206;50.202;10.948;2023-02-05T08:10:04;6.15;;;4.00;;
26540;SDS011;14206;50.202;10.948;2023-02-05T08:12:31;5.85;;;4.32;;
26540;SDS011;14206;50.202;10.948;2023-02-05T08:14:58;5.40;;;4.10;;
26540;SDS011;14206;50.202;10.948;2023-02-05T08:17:25;7.00;;;5.07;;
26540;SDS011;14206;50.202;10.948;2023-02-05T08:19:52;5.10;;;4.10;;
26540;SDS011;14206;50.202;10.948;2023-02-05T08:22:19;5.45;;;4.40;;
26540;SDS011;14206;50.202;10.948;2023-02-05T08:24:48;5.80;;;4.18;;
26540;SDS011;14206;50.202;10.948;2023-02-05T08:27:15;5.80;;;4.20;;
26540;SDS011;14206;50.202;10.948;2023-02-05T08:29:42;5.40;;;4.35;;
26540;SDS011;14206;50.202;10.948;2023-02-05T08:32:11;5.53;;;4.35;;
26540;SDS011;14206;50.202;10.948;2023-02-05T08:34:38;6.35;;;4.28;;
26540;SDS011;14206;50.202;10.948;2023-02-05T08:37:05;7.78;;;5.45;;
26540;SDS011;14206;50.202;10.948;2023-02-05T08:39:31;6.30;;;5.15;;
26540;SDS011;14206;50.202;10.948;2023-02-05T08:41:58;6.57;;;4.90;;
26540;SDS011;14206;50.202;10.948;2023-02-05T08:44:26;7.55;;;5.00;;
26540;SDS011;14206;50.202;10.948;2023-02-05T08:46:53;5.85;;;4.25;;
26540;SDS011;14206;50.202;10.948;2023-02-05T08:49:20;5.45;;;4.72;;
26540;SDS011;14206;50.202;10.948;2023-02-05T08:51:49;5.00;;;4.40;;
26540;SDS011;14206;50.202;10.948;2023-02-05T08:54:16;6.72;;;4.72;;
26540;SDS011;14206;50.202;10.948;2023-02-05T08:56:43;5.82;;;4.65;;
26540;SDS011;14206;50.202;10.948;2023-02-05T08:59:11;7.68;;;5.22;;
26540;SDS011;14206;50.202;10.948;2023-02-05T09:01:38;6.53;;;4.97;;
26540;SDS011;14206;50.202;10.948;2023-02-05T09:04:12;7.88;;;4.85;;
26540;SDS011;14206;50.202;10.948;2023-02-05T09:06:47;6.05;;;4.57;;
26540;SDS011;14206;50.202;10.948;2023-02-05T09:09:14;6.13;;;4.60;;
26540;SDS011;14206;50.202;10.948;2023-02-05T09:11:41;5.72;;;4.57;;
26540;SDS011;14206;50.202;10.948;2023-02-05T09:14:10;6.00;;;4.47;;
26540;SDS011;14206;50.202;10.948;2023-02-05T09:16:41;5.35;;;4.43;;
26540;SDS011;14206;50.202;10.948;2023-02-05T09:19:08;4.88;;;4.07;;
26540;SDS011;14206;50.202;10.948;2023-02-05T09:21:36;5.82;;;4.47;;
26540;SDS011;14206;50.202;10.948;2023-02-05T09:24:02;5.70;;;4.57;;
26540;SDS011;14206;50.202;10.948;2023-02-05T09:26:30;5.93;;;4.57;;
26540;SDS011;14206;50.202;10.948;2023-02-05T09:28:56;6.97;;;4.22;;
26540;SDS011;14206;50.202;10.948;2023-02-05T09:31:24;4.70;;;3.97;;
26540;SDS011;14206;50.202;10.948;2023-02-05T09:33:50;5.95;;;4.22;;
26540;SDS011;14206;50.202;10.948;2023-02-05T09:36:21;5.10;;;4.00;;
26540;SDS011;14206;50.202;10.948;2023-02-05T09:38:49;5.32;;;4.18;;
26540;SDS011;14206;50.202;10.948;2023-02-05T09:47:33;5.40;;;4.30;;
26540;SDS011;14206;50.202;10.948;2023-02-05T09:50:23;5.72;;;4.60;;
26540;SDS011;14206;50.202;10.948;2023-02-05T09:53:05;6.20;;;4.90;;
26540;SDS011;14206;50.202;10.948;2023-02-05T09:55:41;5.15;;;4.40;;
26540;SDS011;14206;50.202;10.948;2023-02-05T09:58:16;6.35;;;4.82;;
26540;SDS011;14206;50.202;10.948;2023-02-05T10:00:48;6.45;;;4.35;;
26540;SDS011;14206;50.202;10.948;2023-02-05T10:17:48;4.95;;;3.92;;
26540;SDS011;14206;50.202;10.948;2023-02-05T10:33:51;5.57;;;4.38;;
26540;SDS011;14206;50.202;10.948;2023-02-05T10:36:23;5.57;;;4.50;;
26540;SDS011;14206;50.202;10.948;2023-02-05T10:38:52;8.18;;;5.28;;
26540;SDS011;14206;50.202;10.948;2023-02-05T10:41:29;8.25;;;5.22;;
26540;SDS011;14206;50.202;10.948;2023-02-05T10:46:35;7.05;;;4.72;;
26540;SDS011;14206;50.202;10.948;2023-02-05T10:49:05;6.43;;;4.57;;
26540;SDS011;14206;50.202;10.948;2023-02-05T10:51:39;6.30;;;4.60;;
26540;SDS011;14206;50.202;10.948;2023-02-05T10:54:16;7.10;;;4.75;;
26540;SDS011;14206;50.202;10.948;2023-02-05T10:56:47;5.80;;;4.45;;
26540;SDS011;14206;50.202;10.948;2023-02-05T10:59:25;5.68;;;4.60;;
26540;SDS011;14206;50.202;10.948;2023-02-05T11:02:03;5.05;;;4.28;;
26540;SDS011;14206;50.202;10.948;2023-02-05T11:07:32;6.43;;;4.32;;
26540;SDS011;14206;50.202;10.948;2023-02-05T11:10:20;6.70;;;4.93;;
26540;SDS011;14206;50.202;10.948;2023-02-05T11:13:01;5.95;;;4.82;;
26540;SDS011;14206;50.202;10.948;2023-02-05T11:15:37;7.47;;;5.15;;
26540;SDS011;14206;50.202;10.948;2023-02-05T11:18:22;5.95;;;4.72;;
26540;SDS011;14206;50.202;10.948;2023-02-05T11:21:02;6.20;;;4.70;;
26540;SDS011;14206;50.202;10.948;2023-02-05T11:23:30;6.10;;;5.05;;
26540;SDS011;14206;50.202;10.948;2023-02-05T11:26:17;6.32;;;4.90;;
26540;SDS011;14206;50.202;10.948;2023-02-05T11:28:45;6.45;;;5.05;;
26540;SDS011;14206;50.202;10.948;2023-02-05T11:31:40;7.10;;;5.57;;
26540;SDS011;14206;50.202;10.948;2023-02-05T11:34:13;6.38;;;5.47;;
26540;SDS011;14206;50.202;10.948;2023-02-05T11:36:52;5.65;;;4.38;;
26540;SDS011;14206;50.202;10.948;2023-02-05T11:42:09;6.75;;;5.50;;
26540;SDS011;14206;50.202;10.948;2023-02-05T11:44:46;7.30;;;5.35;;
26540;SDS011;14206;50.202;10.948;2023-02-05T11:47:22;7.55;;;5.90;;
26540;SDS011;14206;50.202;10.948;2023-02-05T11:50:01;7.07;;;5.30;;
26540;SDS011;14206;50.202;10.948;2023-02-05T11:52:33;6.75;;;5.00;;
26540;SDS011;14206;50.202;10.948;2023-02-05T11:55:02;6.10;;;4.88;;
26540;SDS011;14206;50.202;10.948;2023-02-05T11:57:33;5.90;;;4.38;;
26540;SDS011;14206;50.202;10.948;2023-02-05T12:02:38;7.55;;;5.07;;
26540;SDS011;14206;50.202;10.948;2023-02-05T12:10:12;6.22;;;5.00;;
26540;SDS011;14206;50.202;10.948;2023-02-05T12:12:48;4.97;;;4.40;;
26540;SDS011;14206;50.202;10.948;2023-02-05T12:15:24;5.88;;;4.47;;
26540;SDS011;14206;50.202;10.948;2023-02-05T12:20:40;6.20;;;5.03;;
26540;SDS011;14206;50.202;10.948;2023-02-05T12:23:29;5.53;;;4.85;;
26540;SDS011;14206;50.202;10.948;2023-02-05T12:26:29;7.15;;;4.97;;
26540;SDS011;14206;50.202;10.948;2023-02-05T12:34:31;6.97;;;5.30;;
26540;SDS011;14206;50.202;10.948;2023-02-05T12:40:10;7.22;;;5.03;;
26540;SDS011;14206;50.202;10.948;2023-02-05T12:42:59;7.32;;;5.57;;
26540;SDS011;14206;50.202;10.948;2023-02-05T12:45:33;5.93;;;4.72;;
26540;SDS011;14206;50.202;10.948;2023-02-05T12:59:27;7.50;;;5.30;;
26540;SDS011;14206;50.202;10.948;2023-02-05T13:02:10;7.10;;;5.40;;
26540;SDS011;14206;50.202;10.948;2023-02-05T13:05:06;7.40;;;4.88;;
26540;SDS011;14206;50.202;10.948;2023-02-05T13:13:10;7.72;;;5.30;;
26540;SDS011;14206;50.202;10.948;2023-02-05T13:20:48;5.40;;;4.90;;
26540;SDS011;14206;50.202;10.948;2023-02-05T13:23:37;6.72;;;5.10;;
26540;SDS011;14206;50.202;10.948;2023-02-05T13:26:29;5.53;;;4.80;;
26540;SDS011;14206;50.202;10.948;2023-02-05T13:29:19;7.53;;;5.57;;
26540;SDS011;14206;50.202;10.948;2023-02-05T13:31:51;8.27;;;5.40;;
26540;SDS011;14206;50.202;10.948;2023-02-05T13:34:29;7.10;;;5.35;;
26540;SDS011;14206;50.202;10.948;2023-02-05T13:59:35;8.50;;;6.20;;
26540;SDS011;14206;50.202;10.948;2023-02-05T14:04:59;11.75;;;8.77;;
26540;SDS011;14206;50.202;10.948;2023-02-05T14:07:32;8.68;;;6.80;;
26540;SDS011;14206;50.202;10.948;2023-02-05T14:10:24;9.38;;;6.88;;
26540;SDS011;14206;50.202;10.948;2023-02-05T14:13:09;8.23;;;6.70;;
26540;SDS011;14206;50.202;10.948;2023-02-05T14:15:50;7.85;;;6.45;;
26540;SDS011;14206;50.202;10.948;2023-02-05T14:35:26;8.70;;;6.40;;
26540;SDS011;14206;50.202;10.948;2023-02-05T14:37:59;8.95;;;6.40;;
26540;SDS011;14206;50.202;10.948;2023-02-05T14:40:41;9.00;;;6.60;;
26540;SDS011;14206;50.202;10.948;2023-02-05T14:43:28;8.23;;;6.43;;
26540;SDS011;14206;50.202;10.948;2023-02-05T14:46:04;8.77;;;6.72;;
26540;SDS011;14206;50.202;10.948;2023-02-05T14:48:45;8.93;;;6.30;;
26540;SDS011;14206;50.202;10.948;2023-02-05T14:51:21;7.10;;;5.68;;
26540;SDS011;14206;50.202;10.948;2023-02-05T14:53:55;8.20;;;6.55;;
26540;SDS011;14206;50.202;10.948;2023-02-05T14:56:29;8.73;;;6.60;;
26540;SDS011;14206;50.202;10.948;2023-02-05T14:59:04;8.05;;;6.35;;
26540;SDS011;14206;50.202;10.948;2023-02-05T15:01:43;9.18;;;6.88;;
26540;SDS011;14206;50.202;10.948;2023-02-05T15:04:18;7.65;;;6.40;;
26540;SDS011;14206;50.202;10.948;2023-02-05T15:06:48;9.57;;;6.80;;
26540;SDS011;14206;50.202;10.948;2023-02-05T15:09:17;8.98;;;7.32;;
26540;SDS011;14206;50.202;10.948;2023-02-05T15:14:50;9.80;;;7.40;;
26540;SDS011;14206;50.202;10.948;2023-02-05T15:20:12;8.55;;;6.80;;
26540;SDS011;14206;50.202;10.948;2023-02-05T15:22:56;10.98;;;7.45;;
26540;SDS011;14206;50.202;10.948;2023-02-05T15:25:34;8.43;;;6.68;;
26540;SDS011;14206;50.202;10.948;2023-02-05T15:28:30;9.90;;;6.80;;
26540;SDS011;14206;50.202;10.948;2023-02-05T15:36:53;8.68;;;6.57;;
26540;SDS011;14206;50.202;10.948;2023-02-05T15:42:19;8.25;;;6.57;;
26540;SDS011;14206;50.202;10.948;2023-02-05T15:44:48;9.13;;;6.60;;
26540;SDS011;14206;50.202;10.948;2023-02-05T15:47:17;8.77;;;6.63;;
26540;SDS011;14206;50.202;10.948;2023-02-05T15:49:48;9.15;;;6.78;;
26540;SDS011;14206;50.202;10.948;2023-02-05T15:52:24;8.63;;;6.40;;
26540;SDS011;14206;50.202;10.948;2023-02-05T15:54:57;9.05;;;6.32;;
26540;SDS011;14206;50.202;10.948;2023-02-05T15:57:28;7.63;;;5.93;;
26540;SDS011;14206;50.202;10.948;2023-02-05T15:59:57;7.25;;;5.97;;
26540;SDS011;14206;50.202;10.948;2023-02-05T16:02:27;7.70;;;6.20;;
26540;SDS011;14206;50.202;10.948;2023-02-05T16:04:57;8.27;;;5.65;;
26540;SDS011;14206;50.202;10.948;2023-02-05T16:07:43;7.90;;;5.97;;
26540;SDS011;14206;50.202;10.948;2023-02-05T16:10:15;10.02;;;6.72;;
26540;SDS011;14206;50.202;10.948;2023-02-05T16:15:29;10.95;;;7.90;;
26540;SDS011;14206;50.202;10.948;2023-02-05T16:18:02;16.07;;;10.60;;
26540;SDS011;14206;50.202;10.948;2023-02-05T16:20:34;14.15;;;10.95;;
26540;SDS011;14206;50.202;10.948;2023-02-05T16:23:06;17.20;;;11.82;;
26540;SDS011;14206;50.202;10.948;2023-02-05T16:25:46;17.52;;;12.40;;
26540;SDS011;14206;50.202;10.948;2023-02-05T16:28:21;14.90;;;10.73;;
26540;SDS011;14206;50.202;10.948;2023-02-05T16:31:08;13.55;;;9.73;;
26540;SDS011;14206;50.202;10.948;2023-02-05T16:33:47;11.93;;;8.52;;
26540;SDS011;14206;50.202;10.948;2023-02-05T16:36:33;10.10;;;7.97;;
26540;SDS011;14206;50.202;10.948;2023-02-05T16:39:05;10.70;;;8.48;;
26540;SDS011;14206;50.202;10.948;2023-02-05T16:41:42;11.60;;;8.55;;
26540;SDS011;14206;50.202;10.948;2023-02-05T16:44:25;9.95;;;7.68;;
26540;SDS011;14206;50.202;10.948;2023-02-05T16:49:31;8.88;;;6.85;;
26540;SDS011;14206;50.202;10.948;2023-02-05T16:51:58;10.20;;;6.90;;
26540;SDS011;14206;50.202;10.948;2023-02-05T16:54:26;10.45;;;6.90;;
26540;SDS011;14206;50.202;10.948;2023-02-05T16:57:08;9.45;;;6.90;;
26540;SDS011;14206;50.202;10.948;2023-02-05T16:59:52;10.00;;;6.82;;
26540;SDS011;14206;50.202;10.948;2023-02-05T17:05:04;10.90;;;7.25;;
26540;SDS011;14206;50.202;10.948;2023-02-05T17:07:34;9.18;;;6.35;;
26540;SDS011;14206;50.202;10.948;2023-02-05T17:10:15;9.88;;;7.30;;
26540;SDS011;14206;50.202;10.948;2023-02-05T17:12:55;9.75;;;7.15;;
26540;SDS011;14206;50.202;10.948;2023-02-05T17:15:29;10.43;;;7.35;;
26540;SDS011;14206;50.202;10.948;2023-02-05T17:18:18;9.85;;;6.88;;
26540;SDS011;14206;50.202;10.948;2023-02-05T17:21:18;8.20;;;6.47;;
26540;SDS011;14206;50.202;10.948;2023-02-05T17:23:48;8.25;;;6.30;;
26540;SDS011;14206;50.202;10.948;2023-02-05T17:26:15;10.45;;;7.82;;
26540;SDS011;14206;50.202;10.948;2023-02-05T17:28:44;11.70;;;8.52;;
26540;SDS011;14206;50.202;10.948;2023-02-05T17:31:15;11.85;;;7.72;;
26540;SDS011;14206;50.202;10.948;2023-02-05T17:33:43;8.80;;;7.22;;
26540;SDS011;14206;50.202;10.948;2023-02-05T17:36:14;10.35;;;7.68;;
26540;SDS011;14206;50.202;10.948;2023-02-05T17:38:43;10.02;;;7.53;;
26540;SDS011;14206;50.202;10.948;2023-02-05T17:41:13;10.55;;;7.40;;
26540;SDS011;14206;50.202;10.948;2023-02-05T17:44:03;10.80;;;8.15;;
26540;SDS011;14206;50.202;10.948;2023-02-05T17:46:31;10.63;;;7.90;;
26540;SDS011;14206;50.202;10.948;2023-02-05T17:49:04;9.60;;;7.63;;
26540;SDS011;14206;50.202;10.948;2023-02-05T17:51:44;10.10;;;7.70;;
26540;SDS011;14206;50.202;10.948;2023-02-05T17:54:13;10.00;;;7.50;;
26540;SDS011;14206;50.202;10.948;2023-02-05T17:56:42;9.18;;;7.13;;
26540;SDS011;14206;50.202;10.948;2023-02-05T17:59:13;7.90;;;6.65;;
26540;SDS011;14206;50.202;10.948;2023-02-05T18:01:43;7.47;;;6.32;;
26540;SDS011;14206;50.202;10.948;2023-02-05T18:04:11;8.45;;;6.53;;
26540;SDS011;14206;50.202;10.948;2023-02-05T18:06:38;8.57;;;6.22;;